This is the latest recevied weather packets stored in our database for station/object KF4KUL. If no packets are shown the sender has not sent any weather packets the latest 10 day(s).
| Time | Temp. | Humidity | Pressure | Rain* | Wind** | Luminosity | Snow |
|---|---|---|---|---|---|---|---|
| 1777834826 | 26.67° C | 52% | 1016.7 hPa | 0 mm | - | - | - |
| 1777833925 | 26.67° C | 52% | 1016.8 hPa | 0 mm | - | - | - |
| 1777833024 | 26.11° C | 53% | 1017 hPa | 0 mm | - | - | - |
| 1777832123 | 26.67° C | 52% | 1017.2 hPa | 0 mm | - | - | - |
| 1777831222 | 26.11° C | 53% | 1017.2 hPa | 0 mm | - | - | - |
| 1777830321 | 25.56° C | 56% | 1017.4 hPa | 0 mm | - | - | - |
| 1777829420 | 25.56° C | 54% | 1017.5 hPa | 0 mm | - | - | - |
| 1777828519 | 25° C | 56% | 1017.6 hPa | 0 mm | - | - | - |
| 1777827618 | 25° C | 57% | 1017.9 hPa | 0 mm | - | - | - |
| 1777826717 | 24.44° C | 57% | 1018.1 hPa | 0 mm | - | - | - |
| 1777825816 | 23.89° C | 60% | 1018.2 hPa | 0 mm | - | - | - |
| 1777824915 | 24.44° C | 58% | 1018.3 hPa | 0 mm | - | - | - |
| 1777824014 | 23.33° C | 61% | 1018.3 hPa | 0 mm | - | - | - |
| 1777823113 | 23.33° C | 61% | 1018.3 hPa | 0 mm | - | - | - |
| 1777822212 | 22.22° C | 63% | 1018.2 hPa | 0 mm | - | - | - |
| 1777821311 | 22.78° C | 63% | 1018.3 hPa | 0 mm | - | - | - |
| 1777820410 | 22.22° C | 65% | 1018.3 hPa | 0 mm | - | - | - |
| 1777819509 | 21.11° C | 67% | 1018.3 hPa | 0 mm | - | - | - |
| 1777818608 | 21.11° C | 68% | 1018.2 hPa | 0 mm | - | - | - |
| 1777817707 | 20.56° C | 71% | 1018 hPa | 0 mm | - | - | - |
| 1777816806 | 20° C | 71% | 1017.7 hPa | 0 mm | - | - | - |
| 1777815905 | 18.89° C | 76% | 1017.9 hPa | 0 mm | - | - | - |
| 1777815004 | 19.44° C | 77% | 1017.7 hPa | 0 mm | - | - | - |
| 1777814103 | 18.89° C | 80% | 1017.5 hPa | 0 mm | - | - | - |
| 1777813202 | 18.89° C | 82% | 1017.6 hPa | 0 mm | - | - | - |
* Rain latest hour (hover to see other rain measurements)
** Current wind speed in m/s (hover to see current wind gust speed)